createdAt,value
2018-06-24T00:01:44.763Z,97529.10
2018-06-24T00:04:12.223Z,97525.45
2018-06-24T00:06:39.680Z,97525.25
2018-06-24T00:09:07.193Z,97524.78
2018-06-24T00:11:34.657Z,97530.35
2018-06-24T00:14:02.120Z,97524.20
2018-06-24T00:16:29.679Z,97524.61
2018-06-24T00:18:57.900Z,97523.78
2018-06-24T00:21:25.323Z,97518.67
2018-06-24T00:23:52.756Z,97522.86
2018-06-24T00:26:20.309Z,97522.57
2018-06-24T00:28:47.722Z,97522.78
2018-06-24T00:31:15.193Z,97521.59
2018-06-24T00:33:42.743Z,97525.23
2018-06-24T00:36:10.236Z,97523.91
2018-06-24T00:38:37.714Z,97516.94
2018-06-24T00:41:05.124Z,97516.77
2018-06-24T00:43:32.575Z,97521.25
2018-06-24T00:46:00.088Z,97520.47
2018-06-24T00:48:27.570Z,97514.28
2018-06-24T00:50:54.976Z,97508.68
2018-06-24T00:53:22.471Z,97509.47
2018-06-24T00:55:49.937Z,97508.68
2018-06-24T00:58:17.407Z,97505.94
2018-06-24T01:00:44.823Z,97508.97
2018-06-24T01:03:12.284Z,97505.73
2018-06-24T01:05:39.712Z,97503.58
2018-06-24T01:08:07.178Z,97503.66
2018-06-24T01:10:34.662Z,97504.07
2018-06-24T01:13:03.037Z,97500.01
2018-06-24T01:15:30.565Z,97501.47
2018-06-24T01:17:57.998Z,97495.73
2018-06-24T01:20:25.445Z,97500.95
2018-06-24T01:22:52.885Z,97495.00
2018-06-24T01:25:20.366Z,97487.52
2018-06-24T01:27:47.995Z,97492.41
2018-06-24T01:30:15.464Z,97493.95
2018-06-24T01:32:42.900Z,97491.53
2018-06-24T01:35:10.388Z,97490.47
2018-06-24T01:37:37.797Z,97486.70
2018-06-24T01:40:05.251Z,97491.69
2018-06-24T01:42:32.705Z,97490.11
2018-06-24T01:45:00.171Z,97484.47
2018-06-24T01:47:27.628Z,97483.76
2018-06-24T01:49:55.054Z,97482.02
2018-06-24T01:52:22.755Z,97479.94
2018-06-24T01:54:50.555Z,97483.38
2018-06-24T01:57:18.032Z,97477.48
2018-06-24T01:59:45.580Z,97483.72
2018-06-24T02:02:13.072Z,97478.41
2018-06-24T02:04:40.476Z,97478.98
2018-06-24T02:07:07.952Z,97477.58
2018-06-24T02:09:35.437Z,97469.41
2018-06-24T02:12:03.071Z,97468.55
2018-06-24T02:14:30.491Z,97465.86
2018-06-24T02:16:57.939Z,97464.34
2018-06-24T02:19:25.419Z,97463.56
2018-06-24T02:21:52.927Z,97458.33
2018-06-24T02:24:20.425Z,97460.69
2018-06-24T02:26:47.866Z,97459.27
2018-06-24T02:29:15.348Z,97456.50
2018-06-24T02:31:42.848Z,97449.70
2018-06-24T02:34:10.263Z,97447.70
2018-06-24T02:36:37.714Z,97443.78
2018-06-24T02:39:05.204Z,97440.24
2018-06-24T02:41:32.647Z,97429.33
2018-06-24T02:44:00.059Z,97430.28
2018-06-24T02:46:27.721Z,97432.19
2018-06-24T02:48:55.189Z,97428.20
2018-06-24T02:51:22.665Z,97432.81
2018-06-24T02:53:50.071Z,97433.30
2018-06-24T02:56:17.565Z,97432.67
2018-06-24T02:58:45.150Z,97434.95
2018-06-24T03:01:12.728Z,97429.91
2018-06-24T03:03:40.209Z,97426.95
2018-06-24T03:06:07.802Z,97428.28
2018-06-24T03:08:35.254Z,97426.02
2018-06-24T03:11:02.852Z,97427.53
2018-06-24T03:13:30.272Z,97431.72
2018-06-24T03:15:57.780Z,97433.85
2018-06-24T03:18:25.194Z,97430.50
2018-06-24T03:20:52.664Z,97430.41
2018-06-24T03:23:20.090Z,97433.34
2018-06-24T03:25:47.567Z,97429.56
2018-06-24T03:28:15.000Z,97433.74
2018-06-24T03:30:42.475Z,97437.56
2018-06-24T03:33:09.936Z,97431.83
2018-06-24T03:35:37.325Z,97439.31
2018-06-24T03:38:04.783Z,97434.03
2018-06-24T03:40:32.988Z,97444.52
2018-06-24T03:43:00.534Z,97432.55
2018-06-24T03:45:27.933Z,97430.14
2018-06-24T03:47:55.380Z,97421.77
2018-06-24T03:50:22.864Z,97425.04
2018-06-24T03:52:50.410Z,97424.55
2018-06-24T03:55:19.002Z,97427.10
2018-06-24T03:57:46.410Z,97422.58
2018-06-24T04:00:14.077Z,97423.69
2018-06-24T04:02:41.528Z,97425.80
2018-06-24T04:05:09.012Z,97427.14
2018-06-24T04:07:36.529Z,97429.72
2018-06-24T04:10:04.002Z,97428.73
2018-06-24T04:12:31.476Z,97437.69
2018-06-24T04:14:58.934Z,97437.98
2018-06-24T04:17:26.467Z,97430.19
2018-06-24T04:19:53.948Z,97432.32
2018-06-24T04:22:21.593Z,97431.32
2018-06-24T04:24:49.008Z,97432.84
2018-06-24T04:27:16.489Z,97430.97
2018-06-24T04:29:43.972Z,97436.31
2018-06-24T04:32:11.381Z,97426.39
2018-06-24T04:34:38.824Z,97433.97
2018-06-24T04:37:06.251Z,97439.80
2018-06-24T04:39:33.755Z,97440.34
2018-06-24T04:42:01.160Z,97441.59
2018-06-24T04:44:28.638Z,97440.51
2018-06-24T04:46:56.119Z,97436.63
2018-06-24T04:49:23.715Z,97435.34
2018-06-24T04:51:51.168Z,97437.22
2018-06-24T04:54:18.601Z,97446.38
2018-06-24T04:56:46.054Z,97437.93
2018-06-24T04:59:13.569Z,97448.26
2018-06-24T05:01:40.989Z,97449.45
2018-06-24T05:04:08.448Z,97454.14
2018-06-24T05:06:35.978Z,97445.77
2018-06-24T05:09:03.333Z,97457.72
2018-06-24T05:11:30.771Z,97454.98
2018-06-24T05:13:58.237Z,97459.87
2018-06-24T05:16:25.712Z,97463.34
2018-06-24T05:18:53.121Z,97457.53
2018-06-24T05:21:20.602Z,97451.28
2018-06-24T05:23:48.063Z,97458.21
2018-06-24T05:26:15.503Z,97467.80
2018-06-24T05:28:43.060Z,97468.84
2018-06-24T05:31:10.450Z,97464.36
2018-06-24T05:33:37.923Z,97461.70
2018-06-24T05:36:05.384Z,97466.12
2018-06-24T05:38:32.853Z,97458.14
2018-06-24T05:41:00.299Z,97459.41
2018-06-24T05:43:27.755Z,97468.83
2018-06-24T05:45:55.192Z,97468.39
2018-06-24T05:48:22.662Z,97469.79
2018-06-24T05:50:50.246Z,97472.06
2018-06-24T05:53:18.526Z,97471.98
2018-06-24T05:55:46.082Z,97473.31
2018-06-24T05:58:13.515Z,97480.38
2018-06-24T06:00:40.960Z,97482.25
2018-06-24T06:03:08.429Z,97477.09
2018-06-24T06:05:36.460Z,97476.39
2018-06-24T06:08:03.994Z,97480.98
2018-06-24T06:10:31.475Z,97486.44
2018-06-24T06:12:58.968Z,97480.29
2018-06-24T06:15:26.554Z,97487.34
2018-06-24T06:17:54.033Z,97480.24
2018-06-24T06:20:21.477Z,97481.41
2018-06-24T06:22:50.269Z,97485.11
2018-06-24T06:25:17.749Z,97491.19
2018-06-24T06:27:45.159Z,97489.12
2018-06-24T06:30:12.615Z,97486.05
2018-06-24T06:32:40.069Z,97484.65
2018-06-24T06:35:07.520Z,97486.19
2018-06-24T06:37:35.107Z,97487.66
2018-06-24T06:40:02.543Z,97491.16
2018-06-24T06:42:30.014Z,97488.83
2018-06-24T06:44:57.638Z,97481.90
2018-06-24T06:47:25.028Z,97482.60
2018-06-24T06:49:52.463Z,97484.34
2018-06-24T06:52:19.983Z,97490.99
2018-06-24T06:54:47.427Z,97488.53
2018-06-24T06:57:14.823Z,97485.50
2018-06-24T06:59:42.308Z,97481.48
2018-06-24T07:02:09.764Z,97482.03
2018-06-24T07:04:37.762Z,97486.37
2018-06-24T07:07:05.244Z,97484.70
2018-06-24T07:09:32.742Z,97490.50
2018-06-24T07:12:00.225Z,97488.67
2018-06-24T07:14:27.987Z,97490.59
2018-06-24T07:16:55.532Z,97487.80
2018-06-24T07:19:23.040Z,97490.52
2018-06-24T07:21:50.534Z,97488.77
2018-06-24T07:24:19.764Z,97494.81
2018-06-24T07:26:47.657Z,97492.17
2018-06-24T07:29:15.117Z,97499.94
2018-06-24T07:31:42.915Z,97494.11
2018-06-24T07:34:10.450Z,97495.70
2018-06-24T07:36:37.888Z,97490.23
2018-06-24T07:39:05.415Z,97498.79
2018-06-24T07:41:33.890Z,97497.95
2018-06-24T07:44:01.340Z,97493.27
2018-06-24T07:46:29.057Z,97493.64
2018-06-24T07:48:56.461Z,97498.84
2018-06-24T07:51:24.146Z,97499.55
2018-06-24T07:53:51.576Z,97497.79
2018-06-24T07:56:19.963Z,97506.13
2018-06-24T07:58:47.390Z,97507.72
2018-06-24T08:01:14.842Z,97507.08
2018-06-24T08:03:42.308Z,97510.20
2018-06-24T08:06:09.768Z,97504.64
2018-06-24T08:08:37.236Z,97513.22
2018-06-24T08:11:04.713Z,97510.58
2018-06-24T08:13:32.144Z,97507.98
2018-06-24T08:15:59.657Z,97506.23
2018-06-24T08:18:27.120Z,97503.48
2018-06-24T08:20:54.600Z,97494.00
2018-06-24T08:23:22.239Z,97496.05
2018-06-24T08:25:49.715Z,97496.50
2018-06-24T08:28:17.169Z,97500.94
2018-06-24T08:30:44.581Z,97497.50
2018-06-24T08:33:12.056Z,97494.37
2018-06-24T08:35:39.704Z,97494.70
2018-06-24T08:38:07.147Z,97488.73
2018-06-24T08:40:34.563Z,97480.23
2018-06-24T08:43:02.003Z,97482.78
2018-06-24T08:45:29.410Z,97475.23
2018-06-24T08:47:56.883Z,97483.59
2018-06-24T08:50:24.440Z,97478.18
2018-06-24T08:52:51.952Z,97476.95
2018-06-24T08:55:19.398Z,97478.28
2018-06-24T08:57:47.078Z,97478.41
2018-06-24T09:00:14.557Z,97482.35
2018-06-24T09:02:42.054Z,97477.48
2018-06-24T09:05:09.539Z,97480.20
2018-06-24T09:07:37.037Z,97479.77
2018-06-24T09:10:04.467Z,97482.27
2018-06-24T09:12:31.935Z,97476.94
2018-06-24T09:14:59.412Z,97484.95
2018-06-24T09:17:26.994Z,97487.74
2018-06-24T09:19:54.400Z,97483.13
2018-06-24T09:22:21.851Z,97480.77
2018-06-24T09:24:49.287Z,97479.91
2018-06-24T09:27:16.821Z,97487.46
2018-06-24T09:29:44.293Z,97478.89
2018-06-24T09:32:11.820Z,97484.92
2018-06-24T09:34:39.345Z,97477.15
2018-06-24T09:37:06.762Z,97485.63
2018-06-24T09:39:34.247Z,97480.91
2018-06-24T09:42:01.698Z,97477.08
2018-06-24T09:44:29.103Z,97480.95
2018-06-24T09:46:56.602Z,97476.36
2018-06-24T09:49:24.040Z,97474.45
2018-06-24T09:51:51.569Z,97471.30
2018-06-24T09:54:19.084Z,97458.96
2018-06-24T09:56:46.584Z,97467.16
2018-06-24T09:59:14.030Z,97465.23
2018-06-24T10:01:41.516Z,97459.55
2018-06-24T10:04:08.971Z,97458.69
2018-06-24T10:06:36.406Z,97448.03
2018-06-24T10:09:03.886Z,97445.70
2018-06-24T10:11:31.392Z,97445.48
2018-06-24T10:13:58.912Z,97443.45
2018-06-24T10:16:26.408Z,97431.19
2018-06-24T10:18:53.994Z,97438.13
2018-06-24T10:21:21.333Z,97438.17
2018-06-24T10:23:48.782Z,97431.00
2018-06-24T10:26:16.404Z,97433.17
2018-06-24T10:28:43.841Z,97428.64
2018-06-24T10:31:11.340Z,97431.52
2018-06-24T10:33:38.757Z,97426.32
2018-06-24T10:36:06.238Z,97433.02
2018-06-24T10:38:33.771Z,97428.64
2018-06-24T10:41:01.237Z,97421.66
2018-06-24T10:43:28.675Z,97416.87
2018-06-24T10:45:56.725Z,97417.06
2018-06-24T10:48:24.142Z,97408.47
2018-06-24T10:50:51.593Z,97404.38
2018-06-24T10:53:19.094Z,97411.96
2018-06-24T10:55:46.496Z,97414.12
2018-06-24T10:58:13.941Z,97410.02
2018-06-24T11:00:40.917Z,97403.36
2018-06-24T11:03:08.369Z,97404.23
2018-06-24T11:05:36.588Z,97403.58
2018-06-24T11:08:04.033Z,97400.77
2018-06-24T11:10:31.537Z,97398.98
2018-06-24T11:12:59.047Z,97393.46
2018-06-24T11:15:26.725Z,97397.77
2018-06-24T11:17:54.409Z,97382.41
2018-06-24T11:20:21.878Z,97384.41
2018-06-24T11:22:49.396Z,97388.63
2018-06-24T11:25:16.465Z,97382.30
2018-06-24T11:27:43.466Z,97384.25
2018-06-24T11:30:10.431Z,97373.91
2018-06-24T11:32:38.382Z,97377.20
2018-06-24T11:35:06.045Z,97377.16
2018-06-24T11:37:33.524Z,97368.95
2018-06-24T11:40:01.012Z,97366.38
2018-06-24T11:42:28.533Z,97365.77
2018-06-24T11:44:55.973Z,97360.88
2018-06-24T11:47:23.440Z,97353.11
2018-06-24T11:49:50.885Z,97348.63
2018-06-24T11:52:18.489Z,97355.80
2018-06-24T11:54:45.956Z,97351.88
2018-06-24T11:57:13.727Z,97339.45
2018-06-24T11:59:41.491Z,97351.59
2018-06-24T12:02:09.079Z,97348.55
2018-06-24T12:04:36.649Z,97345.07
2018-06-24T12:07:04.136Z,97339.61
2018-06-24T12:09:31.819Z,97342.94
2018-06-24T12:12:00.388Z,97341.34
2018-06-24T12:14:27.894Z,97331.73
2018-06-24T12:16:55.396Z,97333.49
2018-06-24T12:19:22.838Z,97333.83
2018-06-24T12:21:50.229Z,97322.97
2018-06-24T12:24:17.975Z,97319.50
2018-06-24T12:26:45.461Z,97326.23
2018-06-24T12:29:12.901Z,97320.44
2018-06-24T12:31:39.851Z,97318.65
2018-06-24T12:34:06.897Z,97317.30
2018-06-24T12:36:33.902Z,97313.31
2018-06-24T12:39:00.971Z,97302.87
2018-06-24T12:41:28.030Z,97303.09
2018-06-24T12:43:55.034Z,97299.98
2018-06-24T12:46:22.053Z,97294.14
2018-06-24T12:48:49.062Z,97287.59
2018-06-24T12:51:16.030Z,97293.44
2018-06-24T12:53:42.981Z,97294.62
2018-06-24T12:56:09.959Z,97283.70
2018-06-24T12:58:37.389Z,97273.33
2018-06-24T13:01:04.856Z,97269.83
2018-06-24T13:03:32.392Z,97272.25
2018-06-24T13:05:59.992Z,97274.34
2018-06-24T13:08:27.459Z,97272.80
2018-06-24T13:10:54.869Z,97262.56
2018-06-24T13:13:22.303Z,97265.08
2018-06-24T13:15:49.783Z,97260.02
2018-06-24T13:18:17.316Z,97262.28
2018-06-24T13:20:44.768Z,97280.66
2018-06-24T13:23:12.192Z,97272.13
2018-06-24T13:25:39.639Z,97284.38
2018-06-24T13:28:07.095Z,97278.20
2018-06-24T13:30:34.664Z,97272.34
2018-06-24T13:33:02.273Z,97277.64
2018-06-24T13:35:29.751Z,97268.97
2018-06-24T13:37:57.174Z,97266.05
2018-06-24T13:40:24.620Z,97272.92
2018-06-24T13:42:52.057Z,97274.51
2018-06-24T13:45:19.652Z,97271.06
2018-06-24T13:47:47.131Z,97275.88
2018-06-24T13:50:14.573Z,97272.30
2018-06-24T13:52:42.035Z,97276.96
2018-06-24T13:55:09.534Z,97279.37
2018-06-24T14:00:11.450Z,97270.04
2018-06-24T14:02:39.007Z,97271.73
2018-06-24T14:05:06.487Z,97271.49
2018-06-24T14:07:33.962Z,97278.52
2018-06-24T14:10:01.456Z,97279.09
2018-06-24T14:12:28.932Z,97284.05
2018-06-24T14:14:56.406Z,97288.09
2018-06-24T14:17:23.922Z,97288.76
2018-06-24T14:19:51.433Z,97285.49
2018-06-24T14:22:18.931Z,97290.21
2018-06-24T14:24:46.427Z,97291.23
2018-06-24T14:27:14.184Z,97285.98
2018-06-24T14:29:41.695Z,97289.29
2018-06-24T14:32:09.227Z,97293.49
2018-06-24T14:34:36.653Z,97291.33
2018-06-24T14:37:04.209Z,97295.84
2018-06-24T14:39:31.661Z,97297.04
2018-06-24T14:41:59.364Z,97299.27
2018-06-24T14:44:26.848Z,97297.90
2018-06-24T14:46:54.375Z,97297.98
2018-06-24T14:49:22.204Z,97295.63
2018-06-24T14:51:49.797Z,97299.48
2018-06-24T14:54:18.810Z,97299.62
2018-06-24T14:56:46.285Z,97301.80
2018-06-24T14:59:13.930Z,97303.72
2018-06-24T15:01:41.428Z,97306.38
2018-06-24T15:04:08.915Z,97298.69
2018-06-24T15:06:36.391Z,97301.11
2018-06-24T15:09:03.924Z,97299.64
2018-06-24T15:11:31.353Z,97296.91
2018-06-24T15:13:58.865Z,97295.81
2018-06-24T15:16:26.515Z,97294.16
2018-06-24T15:18:54.037Z,97293.11
2018-06-24T15:21:21.622Z,97299.66
2018-06-24T15:23:49.081Z,97292.43
2018-06-24T15:26:16.741Z,97292.31
2018-06-24T15:28:44.261Z,97289.55
2018-06-24T15:31:12.001Z,97282.19
2018-06-24T15:33:39.704Z,97280.97
2018-06-24T15:36:07.196Z,97286.39
2018-06-24T15:38:34.659Z,97281.41
2018-06-24T15:41:02.325Z,97281.41
2018-06-24T15:43:29.959Z,97278.74
2018-06-24T15:45:57.750Z,97277.66
2018-06-24T15:48:25.373Z,97278.09
2018-06-24T15:50:52.822Z,97278.80
2018-06-24T15:53:20.292Z,97272.00
2018-06-24T15:55:48.783Z,97274.52
2018-06-24T15:58:16.292Z,97267.08
2018-06-24T16:00:43.840Z,97278.77
2018-06-24T16:03:11.322Z,97272.33
2018-06-24T16:05:38.805Z,97267.75
2018-06-24T16:08:06.366Z,97265.66
2018-06-24T16:10:33.822Z,97266.09
2018-06-24T16:13:01.278Z,97257.36
2018-06-24T16:15:28.723Z,97253.67
2018-06-24T16:17:57.010Z,97246.08
2018-06-24T16:20:24.503Z,97248.18
2018-06-24T16:22:51.921Z,97241.09
2018-06-24T16:25:19.408Z,97238.17
2018-06-24T16:27:46.870Z,97238.02
2018-06-24T16:30:14.329Z,97241.77
2018-06-24T16:32:41.819Z,97241.84
2018-06-24T16:35:09.269Z,97239.23
2018-06-24T16:37:36.729Z,97227.22
2018-06-24T16:40:04.150Z,97226.31
2018-06-24T16:42:31.603Z,97214.10
2018-06-24T16:44:59.089Z,97216.61
2018-06-24T16:47:26.525Z,97219.66
2018-06-24T16:49:54.069Z,97209.44
2018-06-24T16:52:21.489Z,97205.48
2018-06-24T16:54:49.061Z,97213.24
2018-06-24T16:57:16.632Z,97206.56
2018-06-24T16:59:44.093Z,97203.75
2018-06-24T17:02:11.524Z,97204.87
2018-06-24T17:04:39.021Z,97203.08
2018-06-24T17:07:07.110Z,97199.95
2018-06-24T17:09:34.546Z,97196.70
2018-06-24T17:12:02.036Z,97201.19
2018-06-24T17:14:29.524Z,97199.40
2018-06-24T17:16:56.975Z,97194.89
2018-06-24T17:19:24.470Z,97196.55
2018-06-24T17:21:51.932Z,97202.11
2018-06-24T17:24:19.481Z,97200.34
2018-06-24T17:26:46.950Z,97206.32
2018-06-24T17:29:14.405Z,97203.41
2018-06-24T17:31:41.895Z,97206.30
2018-06-24T17:34:10.411Z,97204.75
2018-06-24T17:36:38.006Z,97203.11
2018-06-24T17:39:06.020Z,97207.33
2018-06-24T17:41:33.448Z,97197.81
2018-06-24T17:44:00.916Z,97207.48
2018-06-24T17:46:29.391Z,97204.70
2018-06-24T17:48:56.899Z,97209.17
2018-06-24T17:51:24.424Z,97209.84
2018-06-24T17:53:52.032Z,97214.76
2018-06-24T17:56:19.512Z,97211.50
2018-06-24T17:58:46.935Z,97215.33
2018-06-24T18:01:14.340Z,97224.19
2018-06-24T18:03:41.888Z,97224.78
2018-06-24T18:06:09.446Z,97218.47
2018-06-24T18:08:36.969Z,97217.16
2018-06-24T18:11:04.472Z,97220.94
2018-06-24T18:13:32.031Z,97219.70
2018-06-24T18:15:59.498Z,97217.30
2018-06-24T18:18:26.957Z,97225.19
2018-06-24T18:20:54.482Z,97222.46
2018-06-24T18:23:21.956Z,97222.30
2018-06-24T18:25:49.387Z,97223.22
2018-06-24T18:28:16.938Z,97214.11
2018-06-24T18:30:44.418Z,97220.17
2018-06-24T18:33:12.052Z,97220.95
2018-06-24T18:35:39.552Z,97231.50
2018-06-24T18:38:06.989Z,97231.53
2018-06-24T18:40:34.422Z,97232.55
2018-06-24T18:43:02.110Z,97240.66
2018-06-24T18:45:29.582Z,97231.82
2018-06-24T18:47:57.097Z,97236.75
2018-06-24T18:50:24.544Z,97237.00
2018-06-24T18:52:51.989Z,97233.33
2018-06-24T18:55:19.565Z,97234.91
2018-06-24T18:57:47.044Z,97241.25
2018-06-24T19:00:14.541Z,97252.58
2018-06-24T19:02:42.163Z,97248.83
2018-06-24T19:05:09.548Z,97254.34
2018-06-24T19:07:37.017Z,97248.59
2018-06-24T19:10:04.701Z,97247.08
2018-06-24T19:12:32.164Z,97250.58
2018-06-24T19:15:00.428Z,97247.30
2018-06-24T19:17:27.919Z,97260.72
2018-06-24T19:19:55.457Z,97258.14
2018-06-24T19:22:22.921Z,97258.73
2018-06-24T19:24:50.349Z,97263.72
2018-06-24T19:27:17.761Z,97262.72
2018-06-24T19:29:45.459Z,97264.54
2018-06-24T19:32:12.937Z,97270.29
2018-06-24T19:34:40.405Z,97270.64
2018-06-24T19:37:07.918Z,97268.28
2018-06-24T19:39:35.431Z,97270.45
2018-06-24T19:42:02.892Z,97273.46
2018-06-24T19:44:30.344Z,97279.77
2018-06-24T19:46:57.807Z,97282.03
2018-06-24T19:49:25.306Z,97282.13
2018-06-24T19:51:52.767Z,97278.02
2018-06-24T19:54:20.283Z,97282.50
2018-06-24T19:56:47.776Z,97284.02
2018-06-24T19:59:15.173Z,97288.16
2018-06-24T20:01:42.673Z,97284.16
2018-06-24T20:04:10.102Z,97289.55
2018-06-24T20:06:37.696Z,97295.71
2018-06-24T20:09:05.289Z,97290.76
2018-06-24T20:11:32.728Z,97295.05
2018-06-24T20:14:00.199Z,97297.41
2018-06-24T20:16:27.848Z,97300.87
2018-06-24T20:18:55.971Z,97305.83
2018-06-24T20:21:23.416Z,97300.77
2018-06-24T20:23:50.882Z,97312.58
2018-06-24T20:26:19.386Z,97307.48
2018-06-24T20:28:46.883Z,97303.64
2018-06-24T20:31:14.360Z,97310.28
2018-06-24T20:33:41.894Z,97307.95
2018-06-24T20:36:09.487Z,97305.15
2018-06-24T20:38:37.025Z,97308.86
2018-06-24T20:41:04.492Z,97309.86
2018-06-24T20:43:31.922Z,97315.16
2018-06-24T20:45:59.369Z,97314.42
2018-06-24T20:48:26.787Z,97318.06
2018-06-24T20:50:54.313Z,97317.23
2018-06-24T20:53:21.694Z,97316.96
2018-06-24T20:55:49.105Z,97314.20
2018-06-24T20:58:16.593Z,97318.73
2018-06-24T21:00:44.056Z,97317.13
2018-06-24T21:03:11.515Z,97307.77
2018-06-24T21:05:38.967Z,97307.59
2018-06-24T21:08:06.441Z,97308.70
2018-06-24T21:10:33.858Z,97304.66
2018-06-24T21:13:01.343Z,97307.64
2018-06-24T21:15:28.775Z,97308.33
2018-06-24T21:17:56.391Z,97314.75
2018-06-24T21:20:23.956Z,97316.16
2018-06-24T21:22:51.395Z,97318.72
2018-06-24T21:25:18.876Z,97320.00
2018-06-24T21:27:46.415Z,97309.53
2018-06-24T21:30:13.937Z,97315.52
2018-06-24T21:32:41.408Z,97315.05
2018-06-24T21:35:08.848Z,97317.24
2018-06-24T21:37:36.299Z,97326.27
2018-06-24T21:40:03.839Z,97320.59
2018-06-24T21:42:31.322Z,97316.55
2018-06-24T21:44:58.781Z,97312.89
2018-06-24T21:47:26.348Z,97318.47
2018-06-24T21:49:53.784Z,97320.10
2018-06-24T21:52:21.236Z,97323.12
2018-06-24T21:54:48.740Z,97321.52
2018-06-24T21:57:16.225Z,97320.63
2018-06-24T21:59:43.646Z,97320.21
2018-06-24T22:02:11.154Z,97323.95
2018-06-24T22:04:38.610Z,97328.43
2018-06-24T22:07:06.027Z,97325.58
2018-06-24T22:09:33.546Z,97329.23
2018-06-24T22:12:01.021Z,97327.30
2018-06-24T22:14:28.471Z,97331.06
2018-06-24T22:16:56.020Z,97329.95
2018-06-24T22:19:23.514Z,97337.84
2018-06-24T22:21:50.993Z,97338.34
2018-06-24T22:24:18.396Z,97343.55
2018-06-24T22:26:45.874Z,97336.60
2018-06-24T22:29:13.307Z,97341.67
2018-06-24T22:31:40.726Z,97349.37
2018-06-24T22:34:08.208Z,97353.64
2018-06-24T22:36:35.771Z,97353.25
2018-06-24T22:39:03.170Z,97356.41
2018-06-24T22:41:30.624Z,97354.55
2018-06-24T22:43:58.080Z,97355.45
2018-06-24T22:46:25.490Z,97350.18
2018-06-24T22:48:52.903Z,97353.41
2018-06-24T22:51:20.314Z,97352.51
2018-06-24T22:53:47.847Z,97349.52
2018-06-24T22:56:15.291Z,97359.47
2018-06-24T22:58:42.815Z,97357.99
2018-06-24T23:01:10.315Z,97362.74
2018-06-24T23:03:37.764Z,97359.91
2018-06-24T23:06:05.199Z,97358.94
2018-06-24T23:08:32.701Z,97361.69
2018-06-24T23:11:00.126Z,97359.81
2018-06-24T23:13:27.567Z,97367.08
2018-06-24T23:15:55.010Z,97364.30
2018-06-24T23:18:22.454Z,97362.75
2018-06-24T23:20:49.985Z,97359.55
2018-06-24T23:23:17.504Z,97361.52
2018-06-24T23:25:45.049Z,97363.25
2018-06-24T23:28:12.540Z,97361.77
2018-06-24T23:30:39.976Z,97366.39
2018-06-24T23:33:07.447Z,97364.86
2018-06-24T23:35:34.898Z,97374.28
2018-06-24T23:38:02.318Z,97368.97
2018-06-24T23:40:29.810Z,97374.92
2018-06-24T23:42:57.249Z,97376.45
2018-06-24T23:45:24.710Z,97382.47
2018-06-24T23:47:52.167Z,97379.81
2018-06-24T23:50:19.575Z,97372.48
2018-06-24T23:52:47.044Z,97372.77
2018-06-24T23:55:14.744Z,97370.16
2018-06-24T23:57:42.218Z,97368.72
